Información del aeropuerto LEZL

Información de pista
Pista 09 Longitud 11030 ft Anchura 148 ft
Elevación 83 ft Umbral ft Rumbo 90
Pista 27 Longitud 11030 ft Anchura 148 ft
Elevación 111 ft Umbral ft Rumbo 270
Frecuencias del aeropuerto
Tipo APP Nombre APP Frecuencia 120 MHZ
Tipo ATIS Nombre ATIS Frecuencia 118.175 MHZ
Tipo GND Nombre GND Frecuencia 121.7 MHZ
Tipo TWR Nombre TWR Frecuencia 118.1 MHZ
Radioayudas del aeropuerto
Tipo NDB Nombre Sevilla Frecuencia 420 KHZ
Tipo VOR-DME Nombre Sevilla Frecuencia 113700 KHZ
Información meteorológica del aeropuerto y NOTAM
ADDS - METARS form results

(2334 UTC 08 August 2022)
Data provider http://aviationweather.gov/metar/data/
 
METAR text: LEZL 082330Z 21007KT 180V240 CAVOK 22/15 Q1015 NOSIG
Conditions at: LEZL (SEVILLA (CIV/MIL, ES) observed 2330 UTC 08 August 2022
Temperature: 22.0°C (72°F)
Dewpoint: 15.0°C (59°F) [RH = 65%]
Pressure (altimeter): 29.97 inches Hg (1015.0 mb)
Winds: from the SSW (210 degrees) at 8 MPH (7 knots; 3.6 m/s)
Visibility: 6 or more miles (10+ km)
Ceiling: ceiling and visibility are OK
Clouds: unknown
Weather: no significant weather observed at this time

METAR text: LEZL 082300Z 21006KT CAVOK 23/15 Q1015 NOSIG
Conditions at: LEZL (SEVILLA (CIV/MIL, ES) observed 2300 UTC 08 August 2022
Temperature: 23.0°C (73°F)
Dewpoint: 15.0°C (59°F) [RH = 61%]
Pressure (altimeter): 29.97 inches Hg (1015.0 mb)
Winds: from the SSW (210 degrees) at 7 MPH (6 knots; 3.1 m/s)
Visibility: 6 or more miles (10+ km)
Ceiling: ceiling and visibility are OK
Clouds: unknown
Weather: no significant weather observed at this time

Forecast for: LEZL (SEVILLA (CIV/MIL, ES)
Text: TAF LEZL 082000Z 0821/0921 22006KT CAVOK TX37/0915Z TN19/0905Z
Forecast period: 2100 UTC 08 August 2022 to 2100 UTC 09 August 2022
Forecast type: FROM: standard forecast or significant change
Winds: from the SW (220 degrees) at 7 MPH (6 knots; 3.1 m/s)
Visibility: 6 or more miles (10+ km)
Ceiling: unknown
Clouds: missing
Weather: no significant weather forecast for this period